Wednesday, June 29, 2016
19:59 UTC
  |  Log In   |  Register Free
Airport Search:

Richmond Municipal Airport
(KRID)

Richmond Municipal Airport Diagram
No Airport Diagram Available

FAA data valid effective May 26 2016 - Jul 21 2016 (unless otherwise noted).

 
 
 
 
 
 
 
 
 
 
 
 
 
 
Current Aviation Weather for KRID

Weather Summary


Current weather conditions are not available for RID - The nearest NOAA weather station is at MWO, (24.7 nm SE from RID)

The most recent METAR observation for RID was updated at: 12:55 UTC
METAR for KRID is not available. Closest METAR is for KHAO 27.9 nm NW
KHAO  (27.9 nm NW)   (most recent observation was updated at 29:19 UTC)
291953Z AUTO 00000KT 10SM CLR 26/09 A3009 RMK AO2 SLP187 T02560089

KDAY  (30.0 nm SW)   (most recent observation was updated at 29:18 UTC)
291856Z 00000KT 10SM FEW055 23/09 A3010 RMK AO2 SLP189 T02330089

TAF for KRID is not available.
KDAY  (30.0 nm SW)   (most recent observation was updatred at 29:17 UTC)
291738Z 2918/3018 01008KT P6SM FEW050 FM292300 VRB04KT P6SM SKC FM301500 20005KT P6SM FEW040 FEW250


GlobalAir.com is loading additional information.
 Current Weather at MWO
77.0 F° (25.1 C°)

North winds at 8.1 mph
Pressure:
30.11 in
Humidity:
23%
Wind:
North at 8.1 mph
Dew Point:
36.7 F° (2.6 C°)
Visibility:
10.00 mi
RID NOAA Radar




Find All Airport Services Find A Hotel Find A Rental Car Find A Golf Course Find A Restaurant $100 Hamburger



Airport Weather Forecast for KRID

Translated METAR for KMWO (1935 UTC)
METAR:
KMWO 291935Z AUTO 10004KT 10SM CLR 26/03 A3009 RMK AO2 T02550025
Conditions at:
KMWO (Middletown Regional/Hook Field, OH) observed 1935 UTC 29 June 2016
Temperature:
26°C (78.8°F)
Dewpoint:
3°C (37.4°F) [RH = 22.6]
Pressure:
30.09 inches Hg (1019 mb)
Winds:
from the E (100 degrees) at 4.6 mph (4 knots: 2.1 m/s)
Visibility:
10 mile(s)
Ceiling:
at least 12,000 feet AGL
Clouds:
Clear below 12,000 feet AGL
Remarks:
site is un-manned
site is automated and HAS a precipitation sensor

Translated TAF for KDAY (James M Cox Dayton Intl, OH) (1738 UTC)
TAF text:
KDAY 291738Z 2918/3018 01008KT P6SM FEW050
Forecast period:
Wednesday Jun 29 2016 18:00 UTC - Thursday Jun 30 2016 18:00 UTC
Forecast type:
FROM: standard forecast or significant change
Winds:
from the N (010 degrees) at 9.2 mph (8 knots: 4.1 m/s)
Visibility:
6 or more mile(s) (9.7+ km)
Ceiling:
at least 12,000 feet AGL
Clouds:
Few Clouds at 5,000 feet AGL
Weather:
no significant weather observed at this time
TAF text:
FM292300 VRB04KT P6SM SKC
Forecast period:
Wednesday Jun 29 2016 23:00 UTC - Thursday Jun 30 2016 15:00 UTC
Forecast type:
FROM: standard forecast or significant change
Winds:
variable wind direction at 4.6 mph (4 knots: 2.1 m/s)
Visibility:
6 or more mile(s) (9.7+ km)
Ceiling:
at least 12,000 feet AGL
Clouds:
Clear Skies
Weather:
no significant weather observed at this time
TAF text:
FM301500 20005KT P6SM FEW040 FEW250
Forecast period:
Thursday Jun 30 2016 15:00 UTC - Thursday Jun 30 2016 18:00 UTC
Forecast type:
FROM: standard forecast or significant change
Winds:
from the SSW (200 degrees) at 5.8 mph (5 knots: 2.6 m/s)
Visibility:
6 or more mile(s) (9.7+ km)
Ceiling:
at least 12,000 feet AGL
Clouds:
Few Clouds at 4,000 feet AGL
Few Clouds at 25,000 feet AGL
Weather:
no significant weather observed at this time
FBO's on the Field
FBO Company Facility Photos Services Transportation Aviation Fuel Prices: Prices include tax
Catering Weather Repair Courtesy Rental Type 100LL JetA JetA+ MOGAS 8087
 
Richmond Municipal Airport

Currently rated 5 by 1 person
FS:Phillips 66
Last Updated: Jun-29
Login to update fuel prices
SS:
Contact Richmond Municipal AirportMore FBO Information
 
Add another FBO Facility Photos Catering Weather Repair Courtesy Rental Type 100LL JetA JetA+ MOGAS 8087
Services Transportation Aviation Fuel Prices: Prices include tax


model-print
model-print
model-print
model-print